Welcome to La Porte Aviation Services!

An aviation adventure awaits

Current Weather Conditions

Available data for KPPO from the past 2 hours
LA PORTE, IN
Metar
KPPO 112035Z AUTO 24004KT 10SM CLR 02/M03 A3001 RMK AO2 T00181031

20:35 UTC

Wind: 240° 4kt

Visibility: 10 SM

Sky:

Temp: 2 deg C / 35.6 deg F

Dewpoint: -3 deg C / 26.6 deg F

Pressure: 30.01 inHg

Pireps (6)
AZO UA /OV AZO/TM 2040/FL350/TP B737/TB MOD
AZO UA /OV AZO135007/TM 1851/FLT040/TP CRJ7/TA M02/IC LGT RM/RM B018 T040
AZO UA /OV AZO135007/TM 1851/FLT040/TP CRJ7/TA M02/IC LGT RM/RM B018 T040
AZO UA /OV 7 SE AZO/TM 1851/FLT040/TP CRJ7/TA M2/IC LGT RM/RM B018 T040
AZO UA /OV 7 SE AZO/TM 1851/FLT040/TP CRJ7/TA M2/IC LGT RM/RM B018 T040
AZO UA /OV 7 SE AZO/TM 1851/FLT040/TP CRJ7/TA M2/IC LGT RM/RM B018 T040

Connect with us on Facebook!

Facebook By Weblizar Powered By Weblizar